Time;durP1;ratioP1;P1;durP2;ratioP2;P2;SDS_P1;SDS_P2;PMS_P1;PMS_P2;Temp;Humidity;BMP_temperature;BMP_pressure;BME280_temperature;BME280_humidity;BME280_pressure;Samples;Min_cycle;Max_cycle;Signal;HPM_P1;HPM_P2
2023/03/22 00:00:35;;;;;;;12.82;2.45;;;;;;;10.41;100.00;100947.19;5027458;28;20037;-66
2023/03/22 00:03:00;;;;;;;8.80;2.40;;;;;;;10.34;100.00;100931.56;5028509;28;20030;-66
2023/03/22 00:05:26;;;;;;;15.00;2.88;;;;;;;10.32;100.00;100928.13;5027834;28;20052;-66
2023/03/22 00:07:56;;;;;;;9.90;2.83;;;;;;;10.36;100.00;100935.00;5027728;28;20596;-66
2023/03/22 00:10:27;;;;;;;19.98;2.80;;;;;;;10.53;100.00;100936.28;5027394;28;20026;-66
2023/03/22 00:12:54;;;;;;;12.48;2.85;;;;;;;10.49;100.00;100942.56;5027705;28;20029;-66
2023/03/22 00:15:19;;;;;;;16.02;2.75;;;;;;;10.47;100.00;100939.09;5028071;28;20041;-66
2023/03/22 00:17:44;;;;;;;16.55;2.88;;;;;;;10.52;100.00;100933.69;5027981;28;20032;-66
2023/03/22 00:20:10;;;;;;;13.55;3.03;;;;;;;10.60;100.00;100931.69;5028172;28;20026;-66
2023/03/22 00:22:37;;;;;;;20.27;3.25;;;;;;;10.56;100.00;100936.19;5009839;28;20030;-67
2023/03/22 00:25:04;;;;;;;18.60;3.47;;;;;;;10.63;100.00;100925.44;5027013;28;20061;-67
2023/03/22 00:27:30;;;;;;;13.77;2.88;;;;;;;10.61;100.00;100915.81;5027685;28;20021;-66
2023/03/22 00:29:55;;;;;;;14.73;2.50;;;;;;;10.66;100.00;100905.13;5009928;28;20036;-68
2023/03/22 00:32:21;;;;;;;13.85;2.53;;;;;;;10.55;100.00;100897.56;5027584;28;20030;-65
2023/03/22 00:34:46;;;;;;;11.90;4.25;;;;;;;10.65;100.00;100890.22;5026964;28;20032;-67
2023/03/22 00:37:11;;;;;;;13.98;2.72;;;;;;;10.62;100.00;100895.59;5027618;28;20496;-67
2023/03/22 00:39:37;;;;;;;14.35;2.75;;;;;;;10.54;100.00;100885.28;5026241;28;20029;-66
2023/03/22 00:42:04;;;;;;;13.38;2.80;;;;;;;10.52;100.00;100881.88;5027149;28;20049;-67
2023/03/22 00:44:29;;;;;;;10.73;2.55;;;;;;;10.53;100.00;100883.56;5025519;28;20025;-66
2023/03/22 00:46:55;;;;;;;19.00;2.67;;;;;;;10.59;100.00;100880.75;5027883;28;20065;-65
2023/03/22 00:49:20;;;;;;;9.68;2.55;;;;;;;10.61;100.00;100878.94;5027451;28;20053;-66
2023/03/22 00:51:46;;;;;;;12.52;2.28;;;;;;;10.67;100.00;100879.63;5013943;28;20076;-67
2023/03/22 00:54:11;;;;;;;20.15;3.00;;;;;;;10.75;100.00;100867.06;5016728;28;20134;-65
2023/03/22 00:56:37;;;;;;;21.42;4.47;;;;;;;10.64;100.00;100861.28;5027744;28;20049;-65
2023/03/22 00:59:03;;;;;;;14.80;2.70;;;;;;;10.55;100.00;100868.59;5026148;28;20026;-66
2023/03/22 01:01:28;;;;;;;13.82;2.42;;;;;;;10.64;100.00;100864.78;5027576;28;20030;-67
2023/03/22 01:03:53;;;;;;;14.02;2.83;;;;;;;10.52;100.00;100844.09;5008790;28;20065;-67
2023/03/22 01:06:19;;;;;;;12.40;3.08;;;;;;;10.57;100.00;100843.03;5027306;28;20489;-65
2023/03/22 01:08:44;;;;;;;11.50;2.53;;;;;;;10.44;100.00;100841.69;5026698;28;20500;-67
2023/03/22 01:11:10;;;;;;;13.45;2.35;;;;;;;10.49;100.00;100838.06;5027072;28;20053;-66
2023/03/22 01:13:36;;;;;;;17.95;3.00;;;;;;;10.41;100.00;100821.59;5026072;28;20110;-67
2023/03/22 01:16:02;;;;;;;11.98;2.25;;;;;;;10.56;100.00;100825.50;5026950;28;20022;-67
2023/03/22 01:18:27;;;;;;;12.15;2.53;;;;;;;10.49;100.00;100826.63;5026631;28;20040;-66
2023/03/22 01:20:53;;;;;;;12.38;2.60;;;;;;;10.50;100.00;100820.44;5026880;28;20030;-67
2023/03/22 01:23:18;;;;;;;14.40;2.83;;;;;;;10.54;100.00;100816.78;5026198;28;20041;-66
2023/03/22 01:25:44;;;;;;;9.85;2.30;;;;;;;10.42;100.00;100806.66;5026635;28;20029;-66
2023/03/22 01:28:09;;;;;;;16.63;2.72;;;;;;;10.33;100.00;100803.41;5026454;28;20028;-66
2023/03/22 01:30:34;;;;;;;12.77;2.67;;;;;;;10.47;100.00;100796.84;5026258;28;20033;-67
2023/03/22 01:33:00;;;;;;;18.25;3.58;;;;;;;10.41;100.00;100791.78;5009390;28;20021;-68
2023/03/22 01:35:25;;;;;;;13.43;2.88;;;;;;;10.52;100.00;100791.41;5025637;28;20053;-66
2023/03/22 01:37:50;;;;;;;6.95;1.88;;;;;;;10.59;100.00;100782.38;5026805;28;20586;-67
2023/03/22 01:40:16;;;;;;;9.20;2.40;;;;;;;10.69;100.00;100777.66;5024798;28;20065;-67
2023/03/22 01:42:42;;;;;;;15.02;2.72;;;;;;;10.70;100.00;100774.97;5027506;28;20414;-66
2023/03/22 01:45:13;;;;;;;7.40;1.90;;;;;;;10.60;100.00;100769.16;5025629;28;20026;-66
2023/03/22 01:47:57;;;;;;;9.50;2.20;;;;;;;10.61;100.00;100765.63;5026445;28;20496;-68
2023/03/22 01:50:23;;;;;;;9.82;1.95;;;;;;;10.65;100.00;100765.53;5008359;28;20053;-67
2023/03/22 01:52:49;;;;;;;11.25;2.35;;;;;;;10.59;100.00;100750.75;4992084;28;20492;-68
2023/03/22 01:55:17;;;;;;;9.85;2.40;;;;;;;10.60;100.00;100757.78;5008779;28;20075;-66
2023/03/22 01:57:43;;;;;;;9.15;2.20;;;;;;;10.63;100.00;100754.16;5031141;28;20108;-67
2023/03/22 02:00:14;;;;;;;8.57;2.20;;;;;;;10.71;100.00;100750.34;5012229;28;20028;-66
2023/03/22 02:02:40;;;;;;;9.80;2.75;;;;;;;10.66;100.00;100747.03;5030800;28;20026;-67
2023/03/22 02:05:06;;;;;;;9.85;2.05;;;;;;;10.69;100.00;100748.69;5029358;28;20089;-67
2023/03/22 02:07:31;;;;;;;12.63;2.30;;;;;;;10.69;100.00;100746.03;5030649;28;20437;-68
2023/03/22 02:09:58;;;;;;;11.30;2.78;;;;;;;10.62;100.00;100740.13;5029707;28;20052;-66
2023/03/22 02:12:29;;;;;;;13.05;2.55;;;;;;;10.73;100.00;100742.38;5030566;28;20477;-68
2023/03/22 02:15:02;;;;;;;12.90;3.35;;;;;;;10.64;100.00;100725.13;5029472;28;20025;-67
2023/03/22 02:17:36;;;;;;;11.55;2.97;;;;;;;10.63;100.00;100727.81;5030964;28;20112;-67
2023/03/22 02:20:23;;;;;;;9.88;2.95;;;;;;;10.66;100.00;100720.66;5029478;28;20064;-67
2023/03/22 02:23:17;;;;;;;13.05;3.03;;;;;;;10.78;100.00;100716.72;5030714;28;20087;-67
2023/03/22 02:25:58;;;;;;;11.35;3.53;;;;;;;10.72;100.00;100714.31;5011823;28;20041;-67
2023/03/22 02:28:34;;;;;;;7.93;3.13;;;;;;;10.83;100.00;100712.13;5029571;28;20033;-67
2023/03/22 02:31:33;;;;;;;11.27;3.90;;;;;;;10.82;100.00;100720.97;5029776;28;20033;-69
2023/03/22 02:34:09;;;;;;;16.85;4.10;;;;;;;10.85;100.00;100718.22;5029018;28;20052;-67
2023/03/22 02:36:53;;;;;;;15.63;4.60;;;;;;;10.69;100.00;100710.00;5012894;28;20116;-66
2023/03/22 02:39:37;;;;;;;13.07;4.35;;;;;;;10.83;100.00;100711.25;5028580;28;20041;-68
2023/03/22 02:42:23;;;;;;;9.75;4.45;;;;;;;10.74;100.00;100717.72;5011936;28;20029;-67
2023/03/22 02:44:57;;;;;;;12.60;4.85;;;;;;;10.72;100.00;100709.03;5012057;28;20037;-66
2023/03/22 02:47:48;;;;;;;11.30;4.97;;;;;;;10.76;100.00;100712.41;5030022;28;20083;-66
2023/03/22 02:50:29;;;;;;;13.48;5.22;;;;;;;10.77;100.00;100711.50;5029761;28;20032;-65
2023/03/22 02:53:05;;;;;;;18.85;5.13;;;;;;;10.69;100.00;100709.16;5012619;28;20497;-66
2023/03/22 02:55:34;;;;;;;15.35;5.57;;;;;;;10.69;100.00;100714.44;5010787;28;20040;-67
2023/03/22 02:58:06;;;;;;;25.88;6.03;;;;;;;10.66;100.00;100709.25;5011934;28;20104;-66
2023/03/22 03:00:32;;;;;;;13.80;5.45;;;;;;;10.59;100.00;100698.94;5029694;28;20029;-66
2023/03/22 03:03:09;;;;;;;16.35;5.80;;;;;;;10.65;100.00;100699.66;5030228;28;20032;-67
2023/03/22 03:05:37;;;;;;;13.48;6.05;;;;;;;10.65;100.00;100699.66;5012165;28;20032;-67
2023/03/22 03:08:02;;;;;;;15.63;7.07;;;;;;;10.63;100.00;100688.28;5028319;28;20026;-67
2023/03/22 03:10:28;;;;;;;21.90;6.65;;;;;;;10.57;100.00;100695.50;5010393;28;20071;-66
2023/03/22 03:12:53;;;;;;;12.38;5.90;;;;;;;10.70;100.00;100689.78;5028404;28;20025;-68
2023/03/22 03:15:22;;;;;;;16.83;6.00;;;;;;;10.67;100.00;100693.41;5029910;28;20068;-66
2023/03/22 03:17:50;;;;;;;15.48;7.25;;;;;;;10.70;100.00;100687.16;5028671;28;20615;-66
2023/03/22 03:20:33;;;;;;;18.37;6.80;;;;;;;10.75;100.00;100682.56;5028150;28;20124;-66
2023/03/22 03:23:13;;;;;;;18.10;6.15;;;;;;;10.78;100.00;100671.06;5011648;28;20700;-66
2023/03/22 03:25:45;;;;;;;16.73;6.72;;;;;;;10.76;100.00;100672.88;5027324;28;20036;-67
2023/03/22 03:28:21;;;;;;;14.90;6.35;;;;;;;10.83;100.00;100675.22;5028494;28;20037;-68
2023/03/22 03:31:02;;;;;;;14.20;6.20;;;;;;;10.82;100.00;100670.00;5011146;28;20548;-67
2023/03/22 03:33:29;;;;;;;15.70;7.00;;;;;;;10.72;100.00;100674.78;5010820;28;20036;-66
2023/03/22 03:36:00;;;;;;;13.00;6.45;;;;;;;10.79;100.00;100671.00;5011731;28;20068;-66
2023/03/22 03:38:28;;;;;;;16.60;6.13;;;;;;;10.84;100.00;100670.81;5011158;28;20136;-67
2023/03/22 03:41:00;;;;;;;19.98;7.18;;;;;;;10.88;100.00;100669.78;5027834;28;20025;-68
2023/03/22 03:43:26;;;;;;;18.40;6.93;;;;;;;10.83;100.00;100669.97;5011868;28;20379;-66
2023/03/22 03:45:52;;;;;;;18.38;7.05;;;;;;;10.39;100.00;100675.06;5029040;28;20079;-67
2023/03/22 03:48:20;;;;;;;19.20;7.88;;;;;;;10.21;100.00;100673.00;5011061;28;20470;-68
2023/03/22 03:50:49;;;;;;;15.57;7.07;;;;;;;10.19;100.00;100674.84;5011534;28;20604;-67
2023/03/22 03:53:14;;;;;;;13.90;6.65;;;;;;;10.16;100.00;100668.81;5011029;28;20026;-67
2023/03/22 03:55:40;;;;;;;21.90;8.07;;;;;;;10.26;100.00;100678.13;5027515;28;20482;-65
2023/03/22 03:58:05;;;;;;;17.02;7.72;;;;;;;10.34;100.00;100665.56;5028942;28;20029;-67
2023/03/22 04:00:30;;;;;;;19.77;8.05;;;;;;;10.41;100.00;100668.81;5027448;28;22608;-66
2023/03/22 04:02:56;;;;;;;17.48;7.40;;;;;;;10.42;100.00;100665.25;5029512;28;20029;-67
2023/03/22 04:05:21;;;;;;;19.10;7.22;;;;;;;10.53;100.00;100670.19;5028542;28;20666;-66
2023/03/22 04:07:46;;;;;;;12.73;6.93;;;;;;;10.51;100.00;100677.28;5027741;28;20030;-68
2023/03/22 04:10:12;;;;;;;16.98;7.22;;;;;;;10.54;100.00;100652.59;5027921;28;20485;-66
2023/03/22 04:12:37;;;;;;;16.05;6.65;;;;;;;10.49;100.00;100655.41;5026955;28;20041;-67
2023/03/22 04:15:03;;;;;;;14.27;6.78;;;;;;;10.55;100.00;100659.59;5028501;28;20026;-66
2023/03/22 04:17:30;;;;;;;17.00;6.90;;;;;;;10.56;100.00;100661.28;5028077;28;20021;-67
2023/03/22 04:19:56;;;;;;;15.98;7.18;;;;;;;10.55;100.00;100649.91;5027495;28;20033;-67
2023/03/22 04:22:22;;;;;;;10.68;6.50;;;;;;;10.53;100.00;100654.38;5028557;28;20040;-66
2023/03/22 04:24:49;;;;;;;18.27;6.25;;;;;;;10.65;100.00;100649.59;5026288;28;20096;-68
2023/03/22 04:27:15;;;;;;;18.17;7.35;;;;;;;10.59;100.00;100643.59;5027711;28;20533;-67
2023/03/22 04:29:47;;;;;;;15.13;6.78;;;;;;;10.59;100.00;100643.59;5027741;28;20036;-66
2023/03/22 04:32:21;;;;;;;15.18;6.05;;;;;;;10.60;100.00;100636.56;5027094;28;20099;-66
2023/03/22 04:34:48;;;;;;;11.88;5.20;;;;;;;10.61;100.00;100636.53;5027913;28;20104;-66
2023/03/22 04:37:13;;;;;;;18.23;6.25;;;;;;;10.61;100.00;100638.28;5026071;28;20386;-66
2023/03/22 04:39:40;;;;;;;20.70;6.75;;;;;;;10.61;100.00;100628.63;5026784;28;20069;-67
2023/03/22 04:42:05;;;;;;;19.33;6.55;;;;;;;10.61;100.00;100633.00;5027508;28;20025;-68
2023/03/22 04:44:30;;;;;;;11.98;6.13;;;;;;;10.55;100.00;100628.84;5026669;28;20037;-68
2023/03/22 04:46:56;;;;;;;14.45;5.78;;;;;;;10.50;100.00;100630.78;5027560;28;20022;-67
2023/03/22 04:49:21;;;;;;;13.73;5.95;;;;;;;10.47;100.00;100628.25;5026744;28;20029;-67
2023/03/22 04:51:47;;;;;;;13.35;5.75;;;;;;;10.52;100.00;100623.69;5026872;28;20030;-67
2023/03/22 04:54:12;;;;;;;20.60;5.50;;;;;;;10.46;100.00;100635.31;5027172;28;20021;-67
2023/03/22 04:56:37;;;;;;;17.17;5.72;;;;;;;10.46;100.00;100634.44;5026881;28;20017;-67
2023/03/22 04:59:03;;;;;;;11.27;5.15;;;;;;;10.40;100.00;100624.09;5025976;28;20086;-67
2023/03/22 05:01:28;;;;;;;14.48;5.10;;;;;;;10.51;100.00;100627.25;5021640;28;20113;-67
2023/03/22 05:03:53;;;;;;;17.00;5.40;;;;;;;10.44;100.00;100617.78;5026839;28;20717;-66
2023/03/22 05:06:19;;;;;;;14.60;4.30;;;;;;;10.48;100.00;100619.44;5026398;28;20551;-66
2023/03/22 05:08:44;;;;;;;13.18;4.70;;;;;;;10.46;100.00;100623.91;5026750;28;20025;-67
2023/03/22 05:11:12;;;;;;;12.13;4.53;;;;;;;10.44;100.00;100615.16;5025357;28;20045;-67
2023/03/22 05:13:38;;;;;;;11.05;4.60;;;;;;;10.55;100.00;100620.94;5025317;28;20389;-67
2023/03/22 05:16:05;;;;;;;11.30;4.32;;;;;;;10.59;100.00;100609.34;5026855;28;20105;-68
2023/03/22 05:18:31;;;;;;;14.75;3.97;;;;;;;10.60;100.00;100604.97;5027454;28;20386;-67
2023/03/22 05:20:57;;;;;;;9.57;3.97;;;;;;;10.59;100.00;100608.50;5026851;28;20063;-67
2023/03/22 05:23:23;;;;;;;12.52;4.28;;;;;;;10.54;100.00;100613.94;5015121;28;20367;-67
2023/03/22 05:25:50;;;;;;;9.25;4.00;;;;;;;10.53;100.00;100619.28;5025329;28;20022;-66
2023/03/22 05:28:18;;;;;;;11.43;4.40;;;;;;;10.48;100.00;100608.91;5026755;28;20025;-67
2023/03/22 05:30:44;;;;;;;10.35;4.05;;;;;;;10.50;100.00;100607.06;5026604;28;20374;-67
2023/03/22 05:33:10;;;;;;;10.00;3.83;;;;;;;10.43;100.00;100605.53;5026682;28;20112;-66
2023/03/22 05:35:37;;;;;;;12.60;4.47;;;;;;;10.40;100.00;100603.88;4992639;28;20140;-66
2023/03/22 05:38:03;;;;;;;13.50;4.00;;;;;;;10.46;100.00;100589.66;5026911;28;20550;-67
2023/03/22 05:40:29;;;;;;;13.75;3.33;;;;;;;10.41;100.00;100594.22;5026044;28;20076;-66
2023/03/22 05:42:54;;;;;;;16.63;3.78;;;;;;;10.47;100.00;100592.25;5008445;28;20367;-66
2023/03/22 05:45:20;;;;;;;13.23;3.50;;;;;;;10.46;100.00;100582.63;5027145;28;20109;-67
2023/03/22 05:47:46;;;;;;;20.10;4.32;;;;;;;10.49;100.00;100587.78;5026358;28;20025;-66
2023/03/22 05:50:14;;;;;;;10.52;3.15;;;;;;;10.39;100.00;100580.25;5026029;28;20129;-67
2023/03/22 05:52:41;;;;;;;9.52;3.40;;;;;;;10.40;100.00;100585.44;5025244;28;20044;-68
2023/03/22 05:55:07;;;;;;;10.93;3.45;;;;;;;10.49;100.00;100579.00;5025559;28;20047;-68
2023/03/22 05:57:33;;;;;;;9.88;3.10;;;;;;;10.46;100.00;100576.50;5026044;28;20501;-68
2023/03/22 05:59:58;;;;;;;12.30;2.90;;;;;;;10.52;100.00;100580.66;5027474;28;20104;-69
2023/03/22 06:02:24;;;;;;;13.50;3.13;;;;;;;10.55;100.00;100572.66;5025677;28;20040;-66
2023/03/22 06:04:51;;;;;;;12.38;2.90;;;;;;;10.41;100.00;100586.31;5026452;28;20068;-67
2023/03/22 06:07:16;;;;;;;10.93;2.90;;;;;;;10.47;100.00;100579.06;5025757;28;20397;-69
2023/03/22 06:09:42;;;;;;;11.23;2.97;;;;;;;10.55;100.00;100591.09;5026097;28;20028;-68
2023/03/22 06:12:08;;;;;;;11.43;3.20;;;;;;;10.61;100.00;100586.47;5025197;28;20053;-68
2023/03/22 06:14:33;;;;;;;19.17;3.45;;;;;;;10.68;100.00;100586.19;5009359;28;20018;-68
2023/03/22 06:16:58;;;;;;;18.67;3.38;;;;;;;10.69;100.00;100594.03;5025730;28;20033;-67
2023/03/22 06:19:24;;;;;;;15.07;2.90;;;;;;;10.73;100.00;100576.34;5027053;28;20035;-67
2023/03/22 06:21:51;;;;;;;14.95;2.40;;;;;;;10.82;100.00;100591.81;5024499;28;20168;-67
2023/03/22 06:24:17;;;;;;;14.27;2.45;;;;;;;10.84;100.00;100583.84;5025527;28;20026;-68
2023/03/22 06:26:42;;;;;;;10.50;2.15;;;;;;;10.87;100.00;100589.84;5007504;28;20033;-67
2023/03/22 06:29:08;;;;;;;19.67;3.65;;;;;;;10.96;100.00;100585.13;5026697;28;20021;-67
2023/03/22 06:31:33;;;;;;;11.32;2.60;;;;;;;10.96;100.00;100585.97;5026010;28;20041;-66
2023/03/22 06:33:58;;;;;;;14.57;3.40;;;;;;;10.89;100.00;100588.94;5026069;28;20061;-68
2023/03/22 06:36:24;;;;;;;11.80;2.50;;;;;;;10.90;100.00;100574.84;5026356;28;20111;-67
2023/03/22 06:38:49;;;;;;;14.60;3.13;;;;;;;10.80;100.00;100580.47;5024959;28;20061;-67
2023/03/22 06:41:14;;;;;;;7.93;2.47;;;;;;;10.85;100.00;100589.06;5028112;28;20053;-67
2023/03/22 06:43:40;;;;;;;10.75;2.38;;;;;;;10.83;100.00;100590.00;5029247;28;20025;-66
2023/03/22 06:46:05;;;;;;;11.63;2.40;;;;;;;10.84;100.00;100584.69;5030137;28;20393;-67
2023/03/22 06:48:31;;;;;;;18.30;3.80;;;;;;;10.85;100.00;100580.28;5029544;28;20037;-66
2023/03/22 06:50:56;;;;;;;12.43;2.33;;;;;;;10.95;100.00;100588.69;5030884;28;20508;-67
2023/03/22 06:53:21;;;;;;;8.35;2.15;;;;;;;10.99;100.00;100588.50;5012070;28;20013;-66
2023/03/22 06:55:47;;;;;;;10.25;2.10;;;;;;;11.06;100.00;100590.91;5032409;28;20112;-67
2023/03/22 06:58:12;;;;;;;11.23;2.63;;;;;;;11.06;100.00;100598.81;5029403;28;20022;-66
2023/03/22 07:00:38;;;;;;;11.70;2.67;;;;;;;11.21;100.00;100584.16;5029410;28;20057;-68
2023/03/22 07:03:03;;;;;;;11.70;2.35;;;;;;;11.25;100.00;100585.72;5029358;28;20416;-67
2023/03/22 07:05:29;;;;;;;8.43;2.47;;;;;;;11.25;100.00;100580.47;5027606;28;20021;-66
2023/03/22 07:07:54;;;;;;;11.75;2.50;;;;;;;11.27;100.00;100591.81;5016544;28;20053;-66
2023/03/22 07:10:20;;;;;;;13.40;2.80;;;;;;;11.26;100.00;100582.19;5020594;28;20057;-67
2023/03/22 07:12:45;;;;;;;13.43;2.45;;;;;;;11.27;100.00;100570.72;5028659;28;20108;-67
2023/03/22 07:15:10;;;;;;;14.35;3.17;;;;;;;11.36;100.00;100561.56;5027226;28;20029;-67
2023/03/22 07:17:36;;;;;;;8.45;2.20;;;;;;;11.47;100.00;100574.31;5016314;28;20030;-66
2023/03/22 07:20:02;;;;;;;13.75;2.28;;;;;;;11.35;100.00;100587.06;5015440;28;20144;-67
2023/03/22 07:22:28;;;;;;;16.95;2.28;;;;;;;11.41;100.00;100574.56;4984061;28;20026;-65
2023/03/22 07:24:53;;;;;;;8.50;2.15;;;;;;;11.47;100.00;100582.22;5014960;28;20030;-66
2023/03/22 07:27:18;;;;;;;9.43;1.85;;;;;;;11.38;100.00;100588.75;5026514;28;20048;-67
2023/03/22 07:29:44;;;;;;;11.73;2.42;;;;;;;11.50;100.00;100577.66;5018302;28;20025;-67
2023/03/22 07:32:10;;;;;;;13.20;2.65;;;;;;;11.72;100.00;100574.13;5016278;28;20030;-68
2023/03/22 07:34:35;;;;;;;14.48;2.45;;;;;;;11.73;100.00;100567.03;5016886;28;20124;-65
2023/03/22 07:37:02;;;;;;;17.30;2.78;;;;;;;11.79;100.00;100574.69;5020896;28;20477;-67
2023/03/22 07:39:28;;;;;;;13.50;2.55;;;;;;;11.82;100.00;100578.97;5017273;28;20087;-66
2023/03/22 07:41:54;;;;;;;12.75;2.15;;;;;;;11.77;100.00;100576.53;5027353;28;20470;-68
2023/03/22 07:44:19;;;;;;;15.60;2.85;;;;;;;11.73;100.00;100582.88;5027842;28;20112;-65
2023/03/22 07:46:45;;;;;;;11.93;2.75;;;;;;;11.84;100.00;100588.56;5025363;28;20043;-66
2023/03/22 07:49:10;;;;;;;12.85;2.40;;;;;;;11.88;100.00;100590.16;5006390;28;20453;-66
2023/03/22 07:51:36;;;;;;;12.88;2.55;;;;;;;11.87;100.00;100593.69;5000581;28;20034;-66
2023/03/22 07:54:01;;;;;;;13.95;2.63;;;;;;;11.82;100.00;100585.13;5024860;28;20065;-67
2023/03/22 07:56:27;;;;;;;14.07;2.60;;;;;;;11.81;100.00;100588.72;5009415;28;20095;-68
2023/03/22 07:58:52;;;;;;;12.82;3.28;;;;;;;11.84;100.00;100588.56;5026915;28;20108;-67
2023/03/22 08:01:18;;;;;;;12.57;2.25;;;;;;;11.77;100.00;100581.81;5026646;28;20025;-66
2023/03/22 08:03:43;;;;;;;12.95;2.70;;;;;;;11.67;100.00;100591.06;5025294;28;20042;-66
2023/03/22 08:06:09;;;;;;;11.20;3.08;;;;;;;11.69;100.00;100570.75;5026886;28;20305;-66
2023/03/22 08:08:35;;;;;;;8.15;2.58;;;;;;;11.67;100.00;100593.69;5022595;28;20037;-66
2023/03/22 08:11:01;;;;;;;7.53;2.17;;;;;;;11.81;100.00;100595.75;5008100;28;20026;-66
2023/03/22 08:13:27;;;;;;;9.20;2.20;;;;;;;11.86;100.00;100591.16;5011914;28;20025;-66
2023/03/22 08:15:52;;;;;;;13.85;2.58;;;;;;;11.75;100.00;100592.44;4998551;28;20184;-66
2023/03/22 08:18:18;;;;;;;16.98;2.47;;;;;;;11.66;100.00;100594.63;5018710;28;20033;-66
2023/03/22 08:20:44;;;;;;;8.70;2.15;;;;;;;11.58;100.00;100585.25;5011909;28;20083;-65
2023/03/22 08:23:14;;;;;;;11.68;2.65;;;;;;;11.54;100.00;100599.50;5006835;28;20018;-67
2023/03/22 08:25:41;;;;;;;11.32;2.35;;;;;;;11.52;100.00;100596.06;5016582;28;20048;-67
2023/03/22 08:28:06;;;;;;;11.85;2.35;;;;;;;11.37;100.00;100593.16;5015473;28;20099;-65
2023/03/22 08:30:32;;;;;;;13.38;3.00;;;;;;;11.40;100.00;100581.59;4996574;28;20314;-66
2023/03/22 08:32:57;;;;;;;11.52;2.58;;;;;;;11.36;100.00;100595.84;5016753;28;20049;-66
2023/03/22 08:35:23;;;;;;;8.48;2.10;;;;;;;11.18;100.00;100608.88;5014278;28;20029;-67
2023/03/22 08:37:52;;;;;;;9.93;2.42;;;;;;;11.15;100.00;100587.91;5024106;28;20104;-67
2023/03/22 08:40:17;;;;;;;13.00;2.45;;;;;;;11.19;100.00;100585.97;5016700;28;20100;-67
2023/03/22 08:42:43;;;;;;;12.38;2.60;;;;;;;11.23;100.00;100587.59;5011449;28;20037;-65
2023/03/22 08:45:09;;;;;;;9.13;2.30;;;;;;;11.32;100.00;100576.63;5000314;28;20030;-66
2023/03/22 08:47:34;;;;;;;14.38;3.00;;;;;;;11.22;100.00;100581.44;5014394;28;20079;-68
2023/03/22 08:50:00;;;;;;;15.20;2.70;;;;;;;11.28;100.00;100575.06;5013057;28;20026;-67
2023/03/22 08:52:25;;;;;;;9.82;2.22;;;;;;;11.21;100.00;100578.88;5017510;28;20359;-67
2023/03/22 08:54:52;;;;;;;17.30;3.20;;;;;;;11.19;100.00;100591.25;5012494;28;20061;-66
2023/03/22 08:57:20;;;;;;;13.05;3.08;;;;;;;11.14;100.00;100585.31;5013565;28;20025;-67
2023/03/22 08:59:45;;;;;;;13.77;2.47;;;;;;;11.19;100.00;100578.94;5016453;28;20478;-68
2023/03/22 09:02:11;;;;;;;13.73;2.55;;;;;;;10.98;100.00;100575.38;5016585;28;20097;-68
2023/03/22 09:04:36;;;;;;;10.65;2.60;;;;;;;11.13;100.00;100581.81;5013615;28;20121;-66
2023/03/22 09:07:01;;;;;;;13.55;2.50;;;;;;;11.30;100.00;100573.22;5022831;28;20112;-68
2023/03/22 09:09:27;;;;;;;16.48;2.88;;;;;;;11.11;100.00;100584.50;5019621;28;20022;-66
2023/03/22 09:11:52;;;;;;;12.18;3.47;;;;;;;11.07;100.00;100579.41;5018655;28;20482;-68
2023/03/22 09:14:17;;;;;;;11.60;2.58;;;;;;;11.22;100.00;100577.94;5014101;28;20889;-68
2023/03/22 09:16:43;;;;;;;18.48;2.85;;;;;;;11.21;100.00;100594.69;5017333;28;20021;-66
2023/03/22 09:19:08;;;;;;;10.90;2.47;;;;;;;11.17;100.00;100588.66;5017045;28;20037;-68
2023/03/22 09:21:34;;;;;;;9.00;2.58;;;;;;;11.09;100.00;100575.81;5015336;28;20014;-66
2023/03/22 09:23:59;;;;;;;14.02;2.90;;;;;;;11.11;100.00;100571.31;5017054;28;20037;-67
2023/03/22 09:26:25;;;;;;;13.05;2.78;;;;;;;11.10;100.00;100577.53;5014470;28;20092;-67
2023/03/22 09:28:51;;;;;;;15.90;3.65;;;;;;;11.03;100.00;100588.38;5017312;28;20054;-67
2023/03/22 09:31:16;;;;;;;14.05;3.10;;;;;;;11.09;100.00;100570.56;5013924;28;20453;-67
2023/03/22 09:33:42;;;;;;;9.30;2.50;;;;;;;11.29;100.00;100560.94;5006651;28;20025;-66
2023/03/22 09:36:08;;;;;;;12.57;2.78;;;;;;;11.25;100.00;100569.91;5013070;28;20029;-67
2023/03/22 09:38:34;;;;;;;10.27;2.83;;;;;;;11.23;100.00;100571.78;5011813;28;20491;-66
2023/03/22 09:41:34;;;;;;;8.00;2.45;;;;;;;11.18;100.00;100569.31;5004447;28;20056;-66
2023/03/22 09:44:02;;;;;;;11.85;3.08;;;;;;;11.25;100.00;100575.19;5018117;28;20037;-66
2023/03/22 09:46:44;;;;;;;9.88;3.22;;;;;;;11.34;100.00;100576.56;5012281;28;20083;-67
2023/03/22 09:49:13;;;;;;;8.43;2.42;;;;;;;11.30;100.00;100560.03;5019010;28;20481;-65
2023/03/22 09:51:39;;;;;;;;;;;;;;;11.43;100.00;100572.69;5017332;28;20026;-66
2023/03/22 09:54:32;;;;;;;15.43;2.63;;;;;;;11.38;100.00;100584.31;5019254;28;19996;-70
2023/03/22 09:57:03;;;;;;;12.88;2.80;;;;;;;11.22;100.00;100562.13;5015198;28;20030;-67
2023/03/22 09:59:43;;;;;;;11.88;2.38;;;;;;;11.08;100.00;100579.34;4998918;28;20466;-65
2023/03/22 10:02:40;;;;;;;11.95;2.88;;;;;;;11.06;100.00;100573.31;5016053;28;20032;-67
2023/03/22 10:05:23;;;;;;;12.90;2.97;;;;;;;11.18;100.00;100574.59;5025659;28;20140;-68
2023/03/22 10:08:11;;;;;;;10.00;3.17;;;;;;;11.15;100.00;100579.13;5025210;28;20486;-67
2023/03/22 10:10:40;;;;;;;13.55;2.70;;;;;;;11.03;100.00;100569.91;5022862;28;20034;-67
2023/03/22 10:13:15;;;;;;;12.18;2.50;;;;;;;10.96;100.00;100585.13;5008389;28;20368;-67
2023/03/22 10:15:50;;;;;;;9.52;2.25;;;;;;;11.01;100.00;100577.91;5016014;28;20076;-66
2023/03/22 10:18:30;;;;;;;11.57;2.83;;;;;;;11.03;100.00;100581.34;5018265;28;20030;-66
2023/03/22 10:21:07;;;;;;;11.18;2.72;;;;;;;11.11;100.00;100576.59;5020968;28;20037;-65
2023/03/22 10:23:40;;;;;;;12.52;2.83;;;;;;;11.18;100.00;100579.00;5002726;28;20032;-67
2023/03/22 10:26:06;;;;;;;12.52;2.83;;;;;;;11.26;100.00;100576.91;5003771;28;20525;-67
2023/03/22 10:28:40;;;;;;;11.82;2.50;;;;;;;11.28;100.00;100564.50;5002525;28;20105;-67
2023/03/22 10:31:13;;;;;;;12.20;2.88;;;;;;;11.30;100.00;100565.31;5002551;28;20042;-68
2023/03/22 10:33:49;;;;;;;13.52;2.70;;;;;;;11.37;100.00;100556.22;5001732;28;20096;-66
2023/03/22 10:36:15;;;;;;;10.80;2.65;;;;;;;11.43;100.00;100559.50;5022754;28;20022;-67
2023/03/22 10:38:49;;;;;;;8.52;2.33;;;;;;;11.58;100.00;100532.47;5014213;28;20520;-67
2023/03/22 10:41:17;;;;;;;13.40;2.50;;;;;;;11.53;100.00;100544.16;4998384;28;20022;-65
2023/03/22 10:43:43;;;;;;;10.70;2.55;;;;;;;11.57;100.00;100543.09;5020575;28;20517;-66
2023/03/22 10:46:16;;;;;;;11.20;2.10;;;;;;;11.91;100.00;100552.19;4994578;28;20531;-65
2023/03/22 10:48:44;;;;;;;7.35;2.22;;;;;;;11.97;100.00;100551.06;5017415;28;20037;-66
2023/03/22 10:51:35;;;;;;;13.30;2.83;;;;;;;12.24;100.00;100551.63;5024026;28;20040;-67
2023/03/22 10:54:02;;;;;;;12.88;2.75;;;;;;;12.09;100.00;100554.97;5008150;28;20076;-68
2023/03/22 10:56:27;;;;;;;8.32;2.60;;;;;;;12.20;100.00;100551.84;5021397;28;20064;-67
2023/03/22 10:58:54;;;;;;;9.07;1.92;;;;;;;12.30;100.00;100532.00;5021495;28;20538;-66
2023/03/22 11:01:28;;;;;;;10.27;2.20;;;;;;;12.26;100.00;100533.91;5000554;28;20498;-66
2023/03/22 11:03:57;;;;;;;7.75;2.17;;;;;;;12.35;100.00;100523.88;5028817;28;20148;-68
2023/03/22 11:06:28;;;;;;;;;;;;;;;12.56;100.00;100543.16;5018611;28;20121;-65
2023/03/22 11:08:59;;;;;;;15.00;2.80;;;;;;;12.60;100.00;100534.16;5022813;28;19950;-66
2023/03/22 11:11:33;;;;;;;9.10;1.98;;;;;;;12.69;100.00;100558.41;5018629;28;20489;-65
2023/03/22 11:14:26;;;;;;;6.88;2.08;;;;;;;12.48;100.00;100559.38;5010847;28;20553;-65
2023/03/22 11:16:55;;;;;;;11.23;2.40;;;;;;;12.51;100.00;100561.00;5026330;28;20044;-65